Time;durP1;ratioP1;P1;durP2;ratioP2;P2;SDS_P1;SDS_P2;PMS_P1;PMS_P2;Temp;Humidity;BMP_temperature;BMP_pressure;BME280_temperature;BME280_humidity;BME280_pressure;Samples;Min_cycle;Max_cycle;Signal;HPM_P1;HPM_P2
2021/10/09 00:03:27;;;;;;;;;;;19.40;46.80;;;;;;8233965;28;19914;-51
2021/10/09 00:07:29;;;;;;;;;;;19.40;46.90;;;;;;8234432;28;19945;-49
2021/10/09 00:11:47;;;;;;;;;;;19.40;46.80;;;;;;8235001;28;19914;-49
2021/10/09 00:15:48;;;;;;;;;;;19.40;46.80;;;;;;8233654;28;19969;-49
2021/10/09 00:19:48;;;;;;;;;;;19.40;46.90;;;;;;8234047;28;20041;-48
2021/10/09 00:23:49;;;;;;;;;;;19.40;46.90;;;;;;8233376;28;20013;-49
2021/10/09 00:27:50;;;;;;;;;;;19.40;46.90;;;;;;8233599;28;20291;-49
2021/10/09 00:31:50;;;;;;;;;;;19.40;46.90;;;;;;8234413;28;19910;-49
2021/10/09 00:35:51;;;;;;;;;;;19.40;46.90;;;;;;8233088;28;19914;-49
2021/10/09 00:39:51;;;;;;;;;;;19.40;46.90;;;;;;8233791;28;19922;-49
2021/10/09 00:43:53;;;;;;;;;;;19.30;46.90;;;;;;8233351;28;19914;-49
2021/10/09 00:47:53;;;;;;;;;;;19.30;46.90;;;;;;8233561;28;19914;-49
2021/10/09 00:51:54;;;;;;;;;;;19.40;46.90;;;;;;8233399;28;19918;-49
2021/10/09 00:55:56;;;;;;;;;;;19.30;46.90;;;;;;8233528;28;19914;-49
2021/10/09 00:59:58;;;;;;;;;;;19.30;46.90;;;;;;8232768;28;19937;-49
2021/10/09 01:03:58;;;;;;;;;;;19.30;46.90;;;;;;8232642;28;20378;-48
2021/10/09 01:07:59;;;;;;;;;;;19.30;46.90;;;;;;8233569;28;19910;-48
2021/10/09 01:12:00;;;;;;;;;;;19.30;46.90;;;;;;8232585;28;20284;-50
2021/10/09 01:16:00;;;;;;;;;;;19.30;47.00;;;;;;8233185;28;20332;-48
2021/10/09 01:20:01;;;;;;;;;;;19.30;46.90;;;;;;8232918;28;20081;-49
2021/10/09 01:24:01;;;;;;;;;;;19.20;46.80;;;;;;8232892;28;19957;-50
2021/10/09 01:28:02;;;;;;;;;;;19.30;46.90;;;;;;8237161;28;19960;-49
2021/10/09 01:32:02;;;;;;;;;;;19.30;46.90;;;;;;8238894;28;19914;-48
2021/10/09 01:36:04;;;;;;;;;;;19.20;46.90;;;;;;8238439;28;20330;-49
2021/10/09 01:40:04;;;;;;;;;;;19.20;46.90;;;;;;8239527;28;19918;-49
2021/10/09 01:44:05;;;;;;;;;;;19.20;46.90;;;;;;8238558;28;19960;-49
2021/10/09 01:48:06;;;;;;;;;;;19.20;46.90;;;;;;8238080;28;20287;-48
2021/10/09 01:52:06;;;;;;;;;;;19.20;46.90;;;;;;8238888;28;20367;-48
2021/10/09 01:56:07;;;;;;;;;;;19.20;46.90;;;;;;8238546;28;19916;-49
2021/10/09 02:00:07;;;;;;;;;;;19.20;46.90;;;;;;8238741;28;19918;-49
2021/10/09 02:04:08;;;;;;;;;;;19.20;46.90;;;;;;8238076;28;19914;-48
2021/10/09 02:08:08;;;;;;;;;;;19.20;46.90;;;;;;8238076;28;19989;-49
2021/10/09 02:12:09;;;;;;;;;;;19.20;46.90;;;;;;8237343;28;20132;-48
2021/10/09 02:24:55;;;;;;;;;;;19.20;46.90;;;;;;8237324;28;19921;-48
2021/10/09 02:28:55;;;;;;;;;;;19.20;46.90;;;;;;8237415;28;19914;-48
2021/10/09 02:32:56;;;;;;;;;;;19.20;46.90;;;;;;8236854;28;19944;-48
2021/10/09 02:36:56;;;;;;;;;;;19.20;46.90;;;;;;8237941;28;20304;-48
2021/10/09 02:40:57;;;;;;;;;;;19.10;46.80;;;;;;8236827;28;19922;-49
2021/10/09 02:44:57;;;;;;;;;;;19.20;46.90;;;;;;8236764;28;20045;-48
2021/10/09 02:48:58;;;;;;;;;;;19.20;46.90;;;;;;8236638;28;19914;-48
2021/10/09 02:52:58;;;;;;;;;;;19.10;46.90;;;;;;8237839;28;19918;-50
2021/10/09 02:56:58;;;;;;;;;;;19.10;46.80;;;;;;8235966;28;20001;-48
2021/10/09 03:00:59;;;;;;;;;;;19.10;46.80;;;;;;8236275;28;19922;-48
2021/10/09 03:04:59;;;;;;;;;;;19.10;46.90;;;;;;8236426;28;19917;-48
2021/10/09 03:09:00;;;;;;;;;;;19.10;46.90;;;;;;8235529;28;19929;-50
2021/10/09 03:13:00;;;;;;;;;;;19.10;46.90;;;;;;8236928;28;19957;-49
2021/10/09 03:17:01;;;;;;;;;;;19.10;46.90;;;;;;8235817;28;19921;-49
2021/10/09 03:21:01;;;;;;;;;;;19.10;46.90;;;;;;8235291;28;19988;-48
2021/10/09 03:25:02;;;;;;;;;;;19.10;46.90;;;;;;8235882;28;19921;-48
2021/10/09 03:29:02;;;;;;;;;;;19.10;47.00;;;;;;8236236;28;19910;-49
2021/10/09 03:33:03;;;;;;;;;;;19.10;46.90;;;;;;8234955;28;19914;-48
2021/10/09 03:37:04;;;;;;;;;;;19.10;47.00;;;;;;8235113;28;19914;-49
2021/10/09 03:41:11;;;;;;;;;;;19.10;46.90;;;;;;8235197;28;19929;-48
2021/10/09 03:49:25;;;;;;;;;;;19.10;46.90;;;;;;8235029;28;20382;-49
2021/10/09 03:53:25;;;;;;;;;;;19.10;46.90;;;;;;8235182;28;19918;-49
2021/10/09 03:57:26;;;;;;;;;;;19.10;47.00;;;;;;8234104;28;20378;-48
2021/10/09 04:01:26;;;;;;;;;;;19.10;47.00;;;;;;8234412;28;19914;-48
2021/10/09 04:05:26;;;;;;;;;;;19.00;46.90;;;;;;8234553;28;19910;-49
2021/10/09 04:09:27;;;;;;;;;;;19.00;47.00;;;;;;8233945;28;20002;-49
2021/10/09 04:13:27;;;;;;;;;;;19.10;47.00;;;;;;8234141;28;20363;-49
2021/10/09 04:17:28;;;;;;;;;;;19.00;47.00;;;;;;8234288;28;19936;-49
2021/10/09 04:21:28;;;;;;;;;;;19.00;47.00;;;;;;8234382;28;20276;-49
2021/10/09 04:25:29;;;;;;;;;;;19.10;47.00;;;;;;8233879;28;19921;-49
2021/10/09 04:29:29;;;;;;;;;;;19.00;47.00;;;;;;8233807;28;19927;-49
2021/10/09 04:33:30;;;;;;;;;;;19.00;47.00;;;;;;8233223;28;19918;-48
2021/10/09 04:37:30;;;;;;;;;;;19.10;47.00;;;;;;8233690;28;20040;-49
2021/10/09 04:41:31;;;;;;;;;;;19.10;47.00;;;;;;8234170;28;20371;-48
2021/10/09 04:45:31;;;;;;;;;;;19.10;47.00;;;;;;8233160;28;19914;-48
2021/10/09 04:49:32;;;;;;;;;;;19.00;47.00;;;;;;8233231;28;19957;-48
2021/10/09 04:53:32;;;;;;;;;;;19.10;47.00;;;;;;8233128;28;20379;-48
2021/10/09 04:57:33;;;;;;;;;;;19.10;47.00;;;;;;8233543;28;19913;-49
2021/10/09 05:01:33;;;;;;;;;;;19.10;46.90;;;;;;8239285;28;19921;-49
2021/10/09 05:05:34;;;;;;;;;;;19.10;46.90;;;;;;8243687;28;19917;-49
2021/10/09 05:09:34;;;;;;;;;;;19.10;46.90;;;;;;8243333;28;20295;-48
2021/10/09 05:13:34;;;;;;;;;;;19.10;46.90;;;;;;8243882;28;19910;-48
2021/10/09 05:17:35;;;;;;;;;;;19.00;46.90;;;;;;8243954;28;20367;-49
2021/10/09 05:21:35;;;;;;;;;;;19.00;46.90;;;;;;8243127;28;19914;-48
2021/10/09 05:25:37;;;;;;;;;;;19.00;46.90;;;;;;8243296;28;19914;-49
2021/10/09 05:29:38;;;;;;;;;;;19.10;46.90;;;;;;8242839;28;19921;-47
2021/10/09 05:33:42;;;;;;;;;;;19.00;46.90;;;;;;8243952;28;19910;-48
2021/10/09 05:37:42;;;;;;;;;;;19.10;46.90;;;;;;8243262;28;19925;-48
2021/10/09 05:41:43;;;;;;;;;;;19.00;46.90;;;;;;8242804;28;19914;-48
2021/10/09 05:45:43;;;;;;;;;;;19.00;46.90;;;;;;8243039;28;19949;-50
2021/10/09 05:49:44;;;;;;;;;;;19.00;46.90;;;;;;8243907;28;19995;-49
2021/10/09 05:53:52;;;;;;;;;;;19.00;46.90;;;;;;8243085;28;19925;-52
2021/10/09 05:58:35;;;;;;;;;;;19.00;46.90;;;;;;8248327;28;19921;-49
2021/10/09 06:25:15;;;;;;;;;;;19.00;46.90;;;;;;8244683;28;19968;-50
2021/10/09 06:46:03;;;;;;;;;;;19.00;46.80;;;;;;8237111;28;19963;-49
2021/10/09 07:02:42;;;;;;;;;;;19.00;46.90;;;;;;8235622;28;19925;-50
2021/10/09 07:06:42;;;;;;;;;;;19.00;46.90;;;;;;8235699;28;19921;-48
2021/10/09 07:10:46;;;;;;;;;;;19.00;46.90;;;;;;8236076;28;20367;-48
2021/10/09 07:14:47;;;;;;;;;;;19.00;47.40;;;;;;8235469;28;20272;-49
2021/10/09 07:18:47;;;;;;;;;;;19.00;46.90;;;;;;8235665;28;20016;-51
2021/10/09 07:22:48;;;;;;;;;;;19.00;46.80;;;;;;8235743;28;19910;-49
2021/10/09 07:26:49;;;;;;;;;;;19.00;46.90;;;;;;8234408;28;19914;-49
2021/10/09 07:30:49;;;;;;;;;;;19.00;46.90;;;;;;8235458;28;19914;-50
2021/10/09 07:34:49;;;;;;;;;;;19.00;46.90;;;;;;8235134;28;20001;-49
2021/10/09 07:38:50;;;;;;;;;;;19.00;46.90;;;;;;8235306;28;19968;-53
2021/10/09 07:42:50;;;;;;;;;;;19.00;46.90;;;;;;8235204;28;20256;-51
2021/10/09 07:46:51;;;;;;;;;;;19.00;46.90;;;;;;8235065;28;20252;-50
2021/10/09 07:50:51;;;;;;;;;;;19.00;46.90;;;;;;8234266;28;19914;-50
2021/10/09 07:54:53;;;;;;;;;;;19.00;46.90;;;;;;8235301;28;20347;-50
2021/10/09 07:58:53;;;;;;;;;;;19.00;46.90;;;;;;8235302;28;19922;-49
2021/10/09 08:02:53;;;;;;;;;;;19.00;46.90;;;;;;8234090;28;20021;-50
2021/10/09 08:06:54;;;;;;;;;;;19.00;46.90;;;;;;8234508;28;19914;-52
2021/10/09 08:10:54;;;;;;;;;;;19.00;46.90;;;;;;8234133;28;20348;-50
2021/10/09 08:14:55;;;;;;;;;;;19.00;46.90;;;;;;8234675;28;19914;-50
2021/10/09 08:18:57;;;;;;;;;;;19.00;46.90;;;;;;8233841;28;19922;-51
2021/10/09 08:23:05;;;;;;;;;;;19.00;46.80;;;;;;8233974;28;19910;-52
2021/10/09 08:39:37;;;;;;;;;;;19.10;46.80;;;;;;8233217;28;19926;-50
2021/10/09 08:43:41;;;;;;;;;;;19.10;46.90;;;;;;8233243;28;19914;-50
2021/10/09 08:47:43;;;;;;;;;;;19.00;46.80;;;;;;8232834;28;19969;-50
2021/10/09 08:51:43;;;;;;;;;;;19.10;46.90;;;;;;8233715;28;19910;-50
2021/10/09 08:55:45;;;;;;;;;;;19.10;46.80;;;;;;8233327;28;19977;-50
2021/10/09 08:59:54;;;;;;;;;;;19.10;46.80;;;;;;8232450;28;19922;-52
2021/10/09 09:25:29;;;;;;;;;;;19.10;46.70;;;;;;8233067;28;19937;-52
2021/10/09 09:34:05;;;;;;;;;;;19.20;46.70;;;;;;8232420;28;20000;-49
2021/10/09 09:42:29;;;;;;;;;;;19.20;46.70;;;;;;8231977;28;20032;-50
2021/10/09 09:46:30;;;;;;;;;;;19.20;46.70;;;;;;8232691;28;19918;-50
2021/10/09 09:50:31;;;;;;;;;;;19.20;46.70;;;;;;8238407;28;19918;-50
2021/10/09 09:54:31;;;;;;;;;;;19.20;46.70;;;;;;8238332;28;19922;-50
2021/10/09 09:58:35;;;;;;;;;;;19.30;46.70;;;;;;8238726;28;19992;-50
2021/10/09 10:02:38;;;;;;;;;;;19.30;46.70;;;;;;8238045;28;19914;-52
2021/10/09 10:06:38;;;;;;;;;;;19.30;46.70;;;;;;8237860;28;20351;-50
2021/10/09 10:10:39;;;;;;;;;;;19.30;46.70;;;;;;8237207;28;19920;-49
2021/10/09 10:14:42;;;;;;;;;;;19.40;46.70;;;;;;8237942;28;19917;-51
2021/10/09 10:18:45;;;;;;;;;;;19.40;46.60;;;;;;8237692;28;20012;-50
2021/10/09 10:22:48;;;;;;;;;;;19.40;46.70;;;;;;8237435;28;19918;-51
2021/10/09 10:26:48;;;;;;;;;;;19.50;46.70;;;;;;8236845;28;20020;-49
2021/10/09 10:31:02;;;;;;;;;;;19.50;46.70;;;;;;8237520;28;19938;-51
2021/10/09 10:35:21;;;;;;;;;;;19.50;46.60;;;;;;8237955;28;19917;-50
2021/10/09 10:39:36;;;;;;;;;;;19.60;46.60;;;;;;8236371;28;19922;-52
2021/10/09 10:47:45;;;;;;;;;;;19.60;46.50;;;;;;8236611;28;19921;-48
2021/10/09 10:51:57;;;;;;;;;;;19.60;46.50;;;;;;8236864;28;19910;-50
2021/10/09 10:56:10;;;;;;;;;;;19.70;46.60;;;;;;8237510;28;19937;-50
2021/10/09 11:00:12;;;;;;;;;;;19.70;46.60;;;;;;8235870;28;20012;-50
2021/10/09 11:04:12;;;;;;;;;;;19.70;46.50;;;;;;8236699;28;19914;-51
2021/10/09 11:08:13;;;;;;;;;;;19.70;46.50;;;;;;8236283;28;19910;-50
2021/10/09 11:12:21;;;;;;;;;;;19.70;46.50;;;;;;8236385;28;19921;-51
2021/10/09 11:16:27;;;;;;;;;;;19.70;46.50;;;;;;8236004;28;20363;-50
2021/10/09 11:20:29;;;;;;;;;;;19.70;46.50;;;;;;8236158;28;19976;-49
2021/10/09 11:24:39;;;;;;;;;;;19.70;46.50;;;;;;8236317;28;19968;-50
2021/10/09 11:28:42;;;;;;;;;;;19.80;46.50;;;;;;8236468;28;19910;-52
2021/10/09 11:32:44;;;;;;;;;;;19.80;46.50;;;;;;8236486;28;19941;-49
2021/10/09 11:36:44;;;;;;;;;;;19.80;46.40;;;;;;8236146;28;20013;-50
2021/10/09 11:40:53;;;;;;;;;;;19.80;46.40;;;;;;8236179;28;20391;-49
2021/10/09 11:45:16;;;;;;;;;;;19.80;46.40;;;;;;8234922;28;19910;-50
2021/10/09 11:53:49;;;;;;;;;;;19.80;46.40;;;;;;8235252;28;20405;-48
2021/10/09 11:57:50;;;;;;;;;;;19.80;46.40;;;;;;8234464;28;20011;-48
2021/10/09 12:01:52;;;;;;;;;;;19.80;46.40;;;;;;8234510;28;20132;-48
2021/10/09 12:05:58;;;;;;;;;;;19.90;46.50;;;;;;8234101;28;19953;-48
2021/10/09 12:10:11;;;;;;;;;;;19.90;46.50;;;;;;8233909;28;20028;-49
2021/10/09 12:14:12;;;;;;;;;;;19.90;46.40;;;;;;8234831;28;19914;-49
2021/10/09 12:18:13;;;;;;;;;;;19.90;46.40;;;;;;8233511;28;19922;-48
2021/10/09 12:22:14;;;;;;;;;;;19.90;46.40;;;;;;8234052;28;19915;-48
2021/10/09 12:26:15;;;;;;;;;;;19.90;46.30;;;;;;8233858;28;20390;-48
2021/10/09 12:30:16;;;;;;;;;;;19.90;46.30;;;;;;8234030;28;19910;-49
2021/10/09 12:34:30;;;;;;;;;;;19.90;46.40;;;;;;8233839;28;19921;-48
2021/10/09 12:38:38;;;;;;;;;;;19.90;46.40;;;;;;8233328;28;20382;-49
2021/10/09 12:42:41;;;;;;;;;;;20.00;46.40;;;;;;8233088;28;19914;-48
2021/10/09 12:46:41;;;;;;;;;;;19.90;46.40;;;;;;8233383;28;19972;-52
2021/10/09 12:50:42;;;;;;;;;;;19.90;46.40;;;;;;8233582;28;19910;-48
2021/10/09 12:54:43;;;;;;;;;;;19.90;46.40;;;;;;8233516;28;19918;-49
2021/10/09 12:58:43;;;;;;;;;;;19.90;46.30;;;;;;8233115;28;19929;-50
2021/10/09 13:02:44;;;;;;;;;;;20.00;46.40;;;;;;8231580;28;19910;-51
2021/10/09 13:06:44;;;;;;;;;;;20.00;46.40;;;;;;8233806;28;19910;-49
2021/10/09 13:10:48;;;;;;;;;;;20.00;46.40;;;;;;8232821;28;19914;-49
2021/10/09 13:14:49;;;;;;;;;;;20.00;46.40;;;;;;8232275;28;19917;-49
2021/10/09 13:18:49;;;;;;;;;;;20.00;46.40;;;;;;8232472;28;19922;-49
2021/10/09 13:22:50;;;;;;;;;;;20.00;46.40;;;;;;8236719;28;19918;-49
2021/10/09 13:26:50;;;;;;;;;;;20.00;46.40;;;;;;8239353;28;20014;-50
2021/10/09 13:30:51;;;;;;;;;;;20.00;46.30;;;;;;8238981;28;20432;-53
2021/10/09 13:34:52;;;;;;;;;;;20.00;46.40;;;;;;8236955;28;20016;-50
2021/10/09 13:38:53;;;;;;;;;;;20.00;46.40;;;;;;8238429;28;19929;-49
2021/10/09 13:42:53;;;;;;;;;;;20.00;46.30;;;;;;8239838;28;19945;-49
2021/10/09 13:46:54;;;;;;;;;;;20.00;46.40;;;;;;8238453;28;19914;-50
2021/10/09 13:50:54;;;;;;;;;;;20.00;46.40;;;;;;8216773;28;19910;-50
2021/10/09 13:54:54;;;;;;;;;;;20.10;46.40;;;;;;8217268;28;19971;-50
2021/10/09 13:58:55;;;;;;;;;;;20.00;46.30;;;;;;8238297;28;19972;-52
2021/10/09 14:02:55;;;;;;;;;;;20.10;46.30;;;;;;8238549;28;19920;-49
2021/10/09 14:06:56;;;;;;;;;;;20.10;46.30;;;;;;8238312;28;19920;-49
2021/10/09 14:10:57;;;;;;;;;;;20.00;46.30;;;;;;8238175;28;19910;-49
2021/10/09 14:14:58;;;;;;;;;;;20.10;46.30;;;;;;8237344;28;19946;-51
2021/10/09 14:18:59;;;;;;;;;;;20.10;46.30;;;;;;8238396;28;19918;-53
2021/10/09 14:23:01;;;;;;;;;;;20.10;46.20;;;;;;8237866;28;19941;-50
2021/10/09 14:27:02;;;;;;;;;;;20.10;46.20;;;;;;8237099;28;19997;-49
2021/10/09 14:31:02;;;;;;;;;;;20.10;46.30;;;;;;8237461;28;19933;-49
2021/10/09 14:35:03;;;;;;;;;;;20.10;46.20;;;;;;8237439;28;20327;-49
2021/10/09 14:39:04;;;;;;;;;;;20.10;46.20;;;;;;8236254;28;19922;-50
2021/10/09 14:43:04;;;;;;;;;;;20.10;46.10;;;;;;8237317;28;20276;-50
2021/10/09 14:51:19;;;;;;;;;;;20.10;46.10;;;;;;8236426;28;20360;-50
2021/10/09 15:17:24;;;;;;;;;;;20.10;46.00;;;;;;8240770;28;19916;-49
2021/10/09 15:21:25;;;;;;;;;;;20.10;46.00;;;;;;8236123;28;19945;-50
2021/10/09 15:25:25;;;;;;;;;;;20.20;46.10;;;;;;8235766;28;19914;-50
2021/10/09 15:29:26;;;;;;;;;;;20.10;46.00;;;;;;8235508;28;19989;-49
2021/10/09 15:33:26;;;;;;;;;;;20.10;46.00;;;;;;8234991;28;19921;-50
2021/10/09 15:37:29;;;;;;;;;;;20.20;46.10;;;;;;8236421;28;20287;-50
2021/10/09 15:41:29;;;;;;;;;;;20.10;46.10;;;;;;8235292;28;19922;-48
2021/10/09 15:45:30;;;;;;;;;;;20.10;46.00;;;;;;8233823;28;19914;-49
2021/10/09 15:49:30;;;;;;;;;;;20.10;46.00;;;;;;8234286;28;19914;-49
2021/10/09 15:53:31;;;;;;;;;;;20.10;46.00;;;;;;8234167;28;20302;-48
2021/10/09 15:57:31;;;;;;;;;;;20.10;46.00;;;;;;8234907;28;19918;-48
2021/10/09 16:01:32;;;;;;;;;;;20.10;46.00;;;;;;8234332;28;19976;-48
2021/10/09 16:05:32;;;;;;;;;;;20.10;46.00;;;;;;8234564;28;19997;-48
2021/10/09 16:09:33;;;;;;;;;;;20.10;46.00;;;;;;8233021;28;19921;-49
2021/10/09 16:13:33;;;;;;;;;;;20.10;46.00;;;;;;8235194;28;19910;-50
2021/10/09 16:17:34;;;;;;;;;;;20.10;46.00;;;;;;8234091;28;19920;-48
2021/10/09 16:21:34;;;;;;;;;;;20.10;46.00;;;;;;8233497;28;19929;-49
2021/10/09 16:25:35;;;;;;;;;;;20.10;46.00;;;;;;8234259;28;19910;-49
2021/10/09 16:29:35;;;;;;;;;;;20.10;46.00;;;;;;8234573;28;20013;-49
2021/10/09 16:33:36;;;;;;;;;;;20.10;46.00;;;;;;8233444;28;19914;-52
2021/10/09 16:37:37;;;;;;;;;;;20.10;46.00;;;;;;8233836;28;20005;-49
2021/10/09 16:41:37;;;;;;;;;;;20.00;46.00;;;;;;8233265;28;19926;-47
2021/10/09 16:45:38;;;;;;;;;;;20.10;46.10;;;;;;8233595;28;19921;-49
2021/10/09 16:49:38;;;;;;;;;;;20.00;46.00;;;;;;8234108;28;20008;-49
2021/10/09 16:53:39;;;;;;;;;;;20.00;46.00;;;;;;8232801;28;19964;-49
2021/10/09 16:57:39;;;;;;;;;;;20.00;46.10;;;;;;8232765;28;19949;-50
2021/10/09 17:01:40;;;;;;;;;;;20.00;46.10;;;;;;8233328;28;19918;-48
2021/10/09 17:05:40;;;;;;;;;;;20.00;46.10;;;;;;8233583;28;19918;-50
2021/10/09 17:09:41;;;;;;;;;;;20.00;46.10;;;;;;8233148;28;19922;-49
2021/10/09 17:13:42;;;;;;;;;;;20.00;46.10;;;;;;8232838;28;19961;-48
2021/10/09 17:17:42;;;;;;;;;;;20.00;46.10;;;;;;8232369;28;19914;-49
2021/10/09 17:21:43;;;;;;;;;;;20.00;46.10;;;;;;8232971;28;20287;-51
2021/10/09 17:25:43;;;;;;;;;;;20.00;46.20;;;;;;8233307;28;19910;-50
2021/10/09 17:29:44;;;;;;;;;;;20.00;46.10;;;;;;8232200;28;20330;-52
2021/10/09 17:33:44;;;;;;;;;;;20.00;46.10;;;;;;8233083;28;19914;-49
2021/10/09 17:37:45;;;;;;;;;;;20.00;46.10;;;;;;8232387;28;19983;-50
2021/10/09 17:41:45;;;;;;;;;;;20.00;46.10;;;;;;8232743;28;19914;-52
2021/10/09 17:45:45;;;;;;;;;;;20.00;46.10;;;;;;8232374;28;19914;-49
2021/10/09 17:49:46;;;;;;;;;;;20.00;46.00;;;;;;8232173;28;19914;-49
2021/10/09 17:53:46;;;;;;;;;;;20.00;46.00;;;;;;8232312;28;19965;-52
2021/10/09 17:57:47;;;;;;;;;;;20.00;46.00;;;;;;8232905;28;20360;-51
2021/10/09 18:01:47;;;;;;;;;;;20.00;46.00;;;;;;8232373;28;19918;-49
2021/10/09 18:05:48;;;;;;;;;;;20.00;46.00;;;;;;8231917;28;19910;-49
2021/10/09 18:09:50;;;;;;;;;;;20.00;46.00;;;;;;8235681;28;19914;-50
2021/10/09 18:13:51;;;;;;;;;;;20.00;46.00;;;;;;8237970;28;19932;-50
2021/10/09 18:17:51;;;;;;;;;;;20.00;46.00;;;;;;8237764;28;19922;-49
2021/10/09 18:21:52;;;;;;;;;;;19.90;45.90;;;;;;8237640;28;19968;-49
2021/10/09 18:25:57;;;;;;;;;;;19.90;45.90;;;;;;8237455;28;20053;-48
2021/10/09 18:29:57;;;;;;;;;;;19.90;45.90;;;;;;8237047;28;19929;-49
2021/10/09 18:33:58;;;;;;;;;;;19.90;45.90;;;;;;8237997;28;20382;-52
2021/10/09 18:37:58;;;;;;;;;;;19.90;45.90;;;;;;8237057;28;20371;-51
2021/10/09 18:41:59;;;;;;;;;;;19.90;46.00;;;;;;8236878;28;19968;-48
2021/10/09 18:46:00;;;;;;;;;;;19.90;46.00;;;;;;8237188;28;19964;-49
2021/10/09 18:50:00;;;;;;;;;;;19.90;46.00;;;;;;8237691;28;20359;-50
2021/10/09 18:54:01;;;;;;;;;;;19.90;46.00;;;;;;8236723;28;19921;-49
2021/10/09 18:58:02;;;;;;;;;;;19.90;46.00;;;;;;8236268;28;19918;-49
2021/10/09 19:02:03;;;;;;;;;;;19.90;45.90;;;;;;8236506;28;19914;-48
2021/10/09 19:06:03;;;;;;;;;;;19.90;46.00;;;;;;8234979;28;19918;-49
2021/10/09 19:10:04;;;;;;;;;;;19.90;46.00;;;;;;8236861;28;20000;-49
2021/10/09 19:14:05;;;;;;;;;;;19.90;45.90;;;;;;8236236;28;19918;-49
2021/10/09 19:18:05;;;;;;;;;;;19.90;46.00;;;;;;8235321;28;19918;-50
2021/10/09 19:22:06;;;;;;;;;;;19.90;46.00;;;;;;8235980;28;19910;-49
2021/10/09 19:26:07;;;;;;;;;;;19.80;46.00;;;;;;8236278;28;19937;-48
2021/10/09 19:30:07;;;;;;;;;;;19.80;46.00;;;;;;8235116;28;19937;-49
2021/10/09 19:38:14;;;;;;;;;;;19.80;46.00;;;;;;8235859;28;20323;-50
2021/10/09 19:42:15;;;;;;;;;;;19.80;46.00;;;;;;8234496;28;19914;-49
2021/10/09 19:46:15;;;;;;;;;;;19.80;46.00;;;;;;8235722;28;19982;-49
2021/10/09 19:50:19;;;;;;;;;;;19.80;46.00;;;;;;8235093;28;19918;-49
2021/10/09 19:54:35;;;;;;;;;;;19.80;46.00;;;;;;8234715;28;19924;-49
2021/10/09 19:58:36;;;;;;;;;;;19.80;46.00;;;;;;8234908;28;19981;-49
2021/10/09 20:02:36;;;;;;;;;;;19.80;46.00;;;;;;8235360;28;20406;-49
2021/10/09 20:06:37;;;;;;;;;;;19.80;46.00;;;;;;8234099;28;19953;-50
2021/10/09 20:10:49;;;;;;;;;;;19.80;46.00;;;;;;8234509;28;20279;-50
2021/10/09 20:14:52;;;;;;;;;;;19.80;46.00;;;;;;8232604;28;20287;-52
2021/10/09 20:18:52;;;;;;;;;;;19.80;46.00;;;;;;8234131;28;19941;-51
2021/10/09 20:23:04;;;;;;;;;;;19.80;46.00;;;;;;8234722;28;19918;-51
2021/10/09 20:27:05;;;;;;;;;;;19.80;46.00;;;;;;8233435;28;19914;-50
2021/10/09 20:31:06;;;;;;;;;;;19.70;46.00;;;;;;8233252;28;20000;-53
2021/10/09 20:35:06;;;;;;;;;;;19.70;46.00;;;;;;8233851;28;19914;-53
2021/10/09 20:39:07;;;;;;;;;;;19.70;46.00;;;;;;8233969;28;20387;-51
2021/10/09 20:43:07;;;;;;;;;;;19.70;46.00;;;;;;8233556;28;19918;-50
2021/10/09 20:47:08;;;;;;;;;;;19.70;46.00;;;;;;8233283;28;19914;-49
2021/10/09 20:51:08;;;;;;;;;;;19.70;46.00;;;;;;8233080;28;19914;-50
2021/10/09 20:55:09;;;;;;;;;;;19.70;46.00;;;;;;8233746;28;19925;-51
2021/10/09 20:59:09;;;;;;;;;;;19.70;45.90;;;;;;8233866;28;19922;-50
2021/10/09 21:03:10;;;;;;;;;;;19.70;45.90;;;;;;8232617;28;19914;-48
2021/10/09 21:07:31;;;;;;;;;;;19.70;45.90;;;;;;8233249;28;19914;-49
2021/10/09 21:11:46;;;;;;;;;;;19.70;45.90;;;;;;8232932;28;19985;-48
2021/10/09 21:24:28;;;;;;;;;;;19.70;45.80;;;;;;8232362;28;19921;-48
2021/10/09 21:28:28;;;;;;;;;;;19.70;45.80;;;;;;8232601;28;19914;-48
2021/10/09 21:32:29;;;;;;;;;;;19.70;45.70;;;;;;8232910;28;19957;-48
2021/10/09 21:36:30;;;;;;;;;;;19.70;45.70;;;;;;8232599;28;20056;-49
2021/10/09 21:40:30;;;;;;;;;;;19.70;45.80;;;;;;8233142;28;19949;-48
2021/10/09 21:44:31;;;;;;;;;;;19.70;45.80;;;;;;8236018;28;19964;-49
2021/10/09 21:48:31;;;;;;;;;;;19.70;45.80;;;;;;8238155;28;19918;-51
2021/10/09 21:52:32;;;;;;;;;;;19.70;45.90;;;;;;8238980;28;19933;-49
2021/10/09 21:56:42;;;;;;;;;;;19.70;45.80;;;;;;8239335;28;19917;-48
2021/10/09 22:00:58;;;;;;;;;;;19.60;45.80;;;;;;8237220;28;19930;-49
2021/10/09 22:18:05;;;;;;;;;;;19.60;45.80;;;;;;8238068;28;19965;-49
2021/10/09 22:35:11;;;;;;;;;;;19.60;45.80;;;;;;8237568;28;19921;-53
2021/10/09 22:39:11;;;;;;;;;;;19.50;45.70;;;;;;8236650;28;19918;-52
2021/10/09 22:43:11;;;;;;;;;;;19.50;45.70;;;;;;8237739;28;19918;-50
2021/10/09 22:47:12;;;;;;;;;;;19.50;45.80;;;;;;8237069;28;19925;-50
2021/10/09 22:51:12;;;;;;;;;;;19.50;45.80;;;;;;8236436;28;19921;-50
2021/10/09 22:55:13;;;;;;;;;;;19.50;45.80;;;;;;8236606;28;19918;-49
2021/10/09 22:59:14;;;;;;;;;;;19.50;45.80;;;;;;8237409;28;19966;-50
2021/10/09 23:03:14;;;;;;;;;;;19.50;45.80;;;;;;8236097;28;19914;-47
2021/10/09 23:07:14;;;;;;;;;;;19.50;45.80;;;;;;8236298;28;19920;-52
2021/10/09 23:11:15;;;;;;;;;;;19.50;45.80;;;;;;8236405;28;19961;-49
2021/10/09 23:15:15;;;;;;;;;;;19.50;45.80;;;;;;8236612;28;19910;-49
2021/10/09 23:19:16;;;;;;;;;;;19.40;45.80;;;;;;8235933;28;19925;-49
2021/10/09 23:23:16;;;;;;;;;;;19.40;45.70;;;;;;8235685;28;19918;-48
2021/10/09 23:27:17;;;;;;;;;;;19.40;45.80;;;;;;8235425;28;19914;-49
2021/10/09 23:31:17;;;;;;;;;;;19.40;45.70;;;;;;8235986;28;19914;-48
2021/10/09 23:35:18;;;;;;;;;;;19.40;45.70;;;;;;8236417;28;19910;-49
2021/10/09 23:39:18;;;;;;;;;;;19.40;45.70;;;;;;8235381;28;19976;-48
2021/10/09 23:43:19;;;;;;;;;;;19.40;45.80;;;;;;8235409;28;19945;-49
2021/10/09 23:47:19;;;;;;;;;;;19.40;45.80;;;;;;8235196;28;19914;-48
2021/10/09 23:51:19;;;;;;;;;;;19.40;45.80;;;;;;8235419;28;19914;-48
2021/10/09 23:55:20;;;;;;;;;;;19.40;45.80;;;;;;8235242;28;19925;-49
2021/10/09 23:59:20;;;;;;;;;;;19.40;45.80;;;;;;8234812;28;19984;-48
